sensor_id;sensor_type;location;lat;lon;timestamp;temperature;humidity
69084;SHT31;56185;48.526;9.044;2023-01-13T00:00:37;9.91;68.83
69084;SHT31;56185;48.526;9.044;2023-01-13T00:03:02;9.91;69.02
69084;SHT31;56185;48.526;9.044;2023-01-13T00:05:28;9.87;69.33
69084;SHT31;56185;48.526;9.044;2023-01-13T00:07:53;9.91;69.76
69084;SHT31;56185;48.526;9.044;2023-01-13T00:10:18;9.89;69.40
69084;SHT31;56185;48.526;9.044;2023-01-13T00:12:43;9.90;69.39
69084;SHT31;56185;48.526;9.044;2023-01-13T00:15:09;9.97;69.49
69084;SHT31;56185;48.526;9.044;2023-01-13T00:17:35;9.91;69.51
69084;SHT31;56185;48.526;9.044;2023-01-13T00:20:00;9.91;69.44
69084;SHT31;56185;48.526;9.044;2023-01-13T00:22:25;9.93;69.65
69084;SHT31;56185;48.526;9.044;2023-01-13T00:24:50;10.00;69.11
69084;SHT31;56185;48.526;9.044;2023-01-13T00:27:16;9.97;69.40
69084;SHT31;56185;48.526;9.044;2023-01-13T00:29:41;10.00;69.43
69084;SHT31;56185;48.526;9.044;2023-01-13T00:32:06;10.01;69.64
69084;SHT31;56185;48.526;9.044;2023-01-13T00:34:32;10.01;69.67
69084;SHT31;56185;48.526;9.044;2023-01-13T00:36:57;10.08;68.83
69084;SHT31;56185;48.526;9.044;2023-01-13T00:39:22;10.07;69.24
69084;SHT31;56185;48.526;9.044;2023-01-13T00:41:47;10.01;69.38
69084;SHT31;56185;48.526;9.044;2023-01-13T00:44:13;10.04;69.15
69084;SHT31;56185;48.526;9.044;2023-01-13T00:46:38;10.02;69.14
69084;SHT31;56185;48.526;9.044;2023-01-13T00:49:03;10.07;69.21
69084;SHT31;56185;48.526;9.044;2023-01-13T00:51:28;10.04;69.37
69084;SHT31;56185;48.526;9.044;2023-01-13T00:53:53;10.07;69.02
69084;SHT31;56185;48.526;9.044;2023-01-13T00:56:21;10.10;69.27
69084;SHT31;56185;48.526;9.044;2023-01-13T00:58:47;10.05;69.33
69084;SHT31;56185;48.526;9.044;2023-01-13T01:01:15;10.17;68.66
69084;SHT31;56185;48.526;9.044;2023-01-13T01:03:41;10.08;69.01
69084;SHT31;56185;48.526;9.044;2023-01-13T01:06:15;10.15;68.55
69084;SHT31;56185;48.526;9.044;2023-01-13T01:08:41;10.15;68.86
69084;SHT31;56185;48.526;9.044;2023-01-13T01:11:12;10.11;68.75
69084;SHT31;56185;48.526;9.044;2023-01-13T01:13:38;10.17;68.83
69084;SHT31;56185;48.526;9.044;2023-01-13T01:16:05;10.21;68.48
69084;SHT31;56185;48.526;9.044;2023-01-13T01:18:32;10.21;68.58
69084;SHT31;56185;48.526;9.044;2023-01-13T01:20:59;10.15;68.82
69084;SHT31;56185;48.526;9.044;2023-01-13T01:23:24;10.07;68.88
69084;SHT31;56185;48.526;9.044;2023-01-13T01:25:49;10.10;69.12
69084;SHT31;56185;48.526;9.044;2023-01-13T01:28:14;10.12;68.90
69084;SHT31;56185;48.526;9.044;2023-01-13T01:30:40;10.11;69.03
69084;SHT31;56185;48.526;9.044;2023-01-13T01:33:05;10.17;68.95
69084;SHT31;56185;48.526;9.044;2023-01-13T01:35:30;10.11;68.62
69084;SHT31;56185;48.526;9.044;2023-01-13T01:37:55;10.14;68.54
69084;SHT31;56185;48.526;9.044;2023-01-13T01:40:20;10.17;69.03
69084;SHT31;56185;48.526;9.044;2023-01-13T01:42:46;10.12;68.70
69084;SHT31;56185;48.526;9.044;2023-01-13T01:45:21;10.15;68.86
69084;SHT31;56185;48.526;9.044;2023-01-13T01:47:50;10.18;69.16
69084;SHT31;56185;48.526;9.044;2023-01-13T01:50:17;10.14;68.79
69084;SHT31;56185;48.526;9.044;2023-01-13T01:52:45;10.15;69.01
69084;SHT31;56185;48.526;9.044;2023-01-13T01:55:17;10.11;69.15
69084;SHT31;56185;48.526;9.044;2023-01-13T01:57:47;10.11;69.11
69084;SHT31;56185;48.526;9.044;2023-01-13T02:00:14;10.12;69.25
69084;SHT31;56185;48.526;9.044;2023-01-13T02:02:41;10.12;69.84
69084;SHT31;56185;48.526;9.044;2023-01-13T02:05:07;10.18;69.37
69084;SHT31;56185;48.526;9.044;2023-01-13T02:07:33;10.21;69.49
69084;SHT31;56185;48.526;9.044;2023-01-13T02:10:03;10.08;69.34
69084;SHT31;56185;48.526;9.044;2023-01-13T02:12:29;10.10;69.30
69084;SHT31;56185;48.526;9.044;2023-01-13T02:15:01;10.15;69.65
69084;SHT31;56185;48.526;9.044;2023-01-13T02:20:33;10.15;69.99
69084;SHT31;56185;48.526;9.044;2023-01-13T02:28:55;10.04;69.76
69084;SHT31;56185;48.526;9.044;2023-01-13T02:31:25;9.95;70.09
69084;SHT31;56185;48.526;9.044;2023-01-13T02:34:06;10.14;69.71
69084;SHT31;56185;48.526;9.044;2023-01-13T02:36:59;10.08;69.79
69084;SHT31;56185;48.526;9.044;2023-01-13T02:42:23;10.10;70.06
69084;SHT31;56185;48.526;9.044;2023-01-13T02:44:55;10.10;69.95
69084;SHT31;56185;48.526;9.044;2023-01-13T02:47:25;10.08;70.22
69084;SHT31;56185;48.526;9.044;2023-01-13T02:50:01;10.12;70.16
69084;SHT31;56185;48.526;9.044;2023-01-13T02:52:38;10.10;70.39
69084;SHT31;56185;48.526;9.044;2023-01-13T02:55:12;10.07;70.21
69084;SHT31;56185;48.526;9.044;2023-01-13T02:57:40;10.00;70.75
69084;SHT31;56185;48.526;9.044;2023-01-13T03:00:08;10.01;70.48
69084;SHT31;56185;48.526;9.044;2023-01-13T03:02:34;10.02;70.44
69084;SHT31;56185;48.526;9.044;2023-01-13T03:05:00;10.02;70.75
69084;SHT31;56185;48.526;9.044;2023-01-13T03:15:42;9.94;71.63
69084;SHT31;56185;48.526;9.044;2023-01-13T03:18:34;9.90;72.14
69084;SHT31;56185;48.526;9.044;2023-01-13T03:21:24;9.89;72.20
69084;SHT31;56185;48.526;9.044;2023-01-13T03:24:05;9.94;72.19
69084;SHT31;56185;48.526;9.044;2023-01-13T03:26:44;9.95;72.26
69084;SHT31;56185;48.526;9.044;2023-01-13T03:29:19;9.95;72.37
69084;SHT31;56185;48.526;9.044;2023-01-13T03:32:36;9.93;72.20
69084;SHT31;56185;48.526;9.044;2023-01-13T03:34:41;9.95;72.29
69084;SHT31;56185;48.526;9.044;2023-01-13T03:37:09;9.93;72.46
69084;SHT31;56185;48.526;9.044;2023-01-13T03:39:38;9.97;72.26
69084;SHT31;56185;48.526;9.044;2023-01-13T03:42:12;9.91;72.17
69084;SHT31;56185;48.526;9.044;2023-01-13T03:44:43;9.97;72.26
69084;SHT31;56185;48.526;9.044;2023-01-13T03:47:26;9.95;72.06
69084;SHT31;56185;48.526;9.044;2023-01-13T03:50:14;9.98;71.69
69084;SHT31;56185;48.526;9.044;2023-01-13T03:55:50;10.02;71.79
69084;SHT31;56185;48.526;9.044;2023-01-13T03:58:21;9.95;71.72
69084;SHT31;56185;48.526;9.044;2023-01-13T04:06:26;9.95;71.90
69084;SHT31;56185;48.526;9.044;2023-01-13T04:08:59;9.94;72.41
69084;SHT31;56185;48.526;9.044;2023-01-13T04:11:35;10.05;71.86
69084;SHT31;56185;48.526;9.044;2023-01-13T04:14:03;10.07;71.84
69084;SHT31;56185;48.526;9.044;2023-01-13T04:16:31;10.02;71.58
69084;SHT31;56185;48.526;9.044;2023-01-13T04:18:57;9.97;71.89
69084;SHT31;56185;48.526;9.044;2023-01-13T04:21:22;10.04;71.82
69084;SHT31;56185;48.526;9.044;2023-01-13T04:23:47;10.07;71.66
69084;SHT31;56185;48.526;9.044;2023-01-13T04:26:12;10.10;71.49
69084;SHT31;56185;48.526;9.044;2023-01-13T04:28:38;10.02;71.56
69084;SHT31;56185;48.526;9.044;2023-01-13T04:31:03;10.08;71.32
69084;SHT31;56185;48.526;9.044;2023-01-13T04:33:28;10.02;71.40
69084;SHT31;56185;48.526;9.044;2023-01-13T04:35:53;10.08;71.23
69084;SHT31;56185;48.526;9.044;2023-01-13T04:38:20;10.12;71.24
69084;SHT31;56185;48.526;9.044;2023-01-13T04:40:46;10.02;71.16
69084;SHT31;56185;48.526;9.044;2023-01-13T04:43:12;10.07;70.97
69084;SHT31;56185;48.526;9.044;2023-01-13T04:45:37;10.14;70.93
69084;SHT31;56185;48.526;9.044;2023-01-13T04:48:03;10.11;71.08
69084;SHT31;56185;48.526;9.044;2023-01-13T04:50:28;10.10;71.19
69084;SHT31;56185;48.526;9.044;2023-01-13T04:52:54;10.15;71.06
69084;SHT31;56185;48.526;9.044;2023-01-13T04:55:21;10.17;70.64
69084;SHT31;56185;48.526;9.044;2023-01-13T04:57:46;10.12;70.99
69084;SHT31;56185;48.526;9.044;2023-01-13T05:00:14;10.11;70.96
69084;SHT31;56185;48.526;9.044;2023-01-13T05:02:40;10.14;70.74
69084;SHT31;56185;48.526;9.044;2023-01-13T05:05:05;10.20;71.25
69084;SHT31;56185;48.526;9.044;2023-01-13T05:07:31;10.14;71.27
69084;SHT31;56185;48.526;9.044;2023-01-13T05:09:56;10.12;71.26
69084;SHT31;56185;48.526;9.044;2023-01-13T05:12:22;10.10;70.95
69084;SHT31;56185;48.526;9.044;2023-01-13T05:14:47;10.17;70.80
69084;SHT31;56185;48.526;9.044;2023-01-13T05:17:17;10.20;70.65
69084;SHT31;56185;48.526;9.044;2023-01-13T05:19:43;10.20;71.06
69084;SHT31;56185;48.526;9.044;2023-01-13T05:22:09;10.25;70.98
69084;SHT31;56185;48.526;9.044;2023-01-13T05:24:34;10.22;71.11
69084;SHT31;56185;48.526;9.044;2023-01-13T05:26:59;10.28;70.64
69084;SHT31;56185;48.526;9.044;2023-01-13T05:29:24;10.18;71.17
69084;SHT31;56185;48.526;9.044;2023-01-13T05:31:50;10.22;70.92
69084;SHT31;56185;48.526;9.044;2023-01-13T05:34:15;10.25;70.85
69084;SHT31;56185;48.526;9.044;2023-01-13T05:36:40;10.20;71.16
69084;SHT31;56185;48.526;9.044;2023-01-13T05:39:05;10.11;71.24
69084;SHT31;56185;48.526;9.044;2023-01-13T05:41:31;10.18;71.00
69084;SHT31;56185;48.526;9.044;2023-01-13T05:43:56;10.25;71.18
69084;SHT31;56185;48.526;9.044;2023-01-13T05:46:21;10.25;70.84
69084;SHT31;56185;48.526;9.044;2023-01-13T05:48:46;10.21;70.78
69084;SHT31;56185;48.526;9.044;2023-01-13T05:51:12;10.22;71.11
69084;SHT31;56185;48.526;9.044;2023-01-13T05:53:37;10.17;71.15
69084;SHT31;56185;48.526;9.044;2023-01-13T05:56:04;10.17;71.20
69084;SHT31;56185;48.526;9.044;2023-01-13T05:58:29;10.17;71.43
69084;SHT31;56185;48.526;9.044;2023-01-13T06:00:59;10.14;71.10
69084;SHT31;56185;48.526;9.044;2023-01-13T06:03:25;10.14;70.96
69084;SHT31;56185;48.526;9.044;2023-01-13T06:05:50;10.12;71.24
69084;SHT31;56185;48.526;9.044;2023-01-13T06:08:15;10.12;71.13
69084;SHT31;56185;48.526;9.044;2023-01-13T06:10:40;10.07;71.60
69084;SHT31;56185;48.526;9.044;2023-01-13T06:13:06;9.95;71.73
69084;SHT31;56185;48.526;9.044;2023-01-13T06:15:31;10.01;71.62
69084;SHT31;56185;48.526;9.044;2023-01-13T06:17:56;9.97;71.85
69084;SHT31;56185;48.526;9.044;2023-01-13T06:20:23;10.02;71.83
69084;SHT31;56185;48.526;9.044;2023-01-13T06:22:50;10.00;72.16
69084;SHT31;56185;48.526;9.044;2023-01-13T06:25:28;9.97;72.13
69084;SHT31;56185;48.526;9.044;2023-01-13T06:27:57;10.01;72.46
69084;SHT31;56185;48.526;9.044;2023-01-13T06:30:25;10.02;72.02
69084;SHT31;56185;48.526;9.044;2023-01-13T06:32:54;9.97;72.30
69084;SHT31;56185;48.526;9.044;2023-01-13T06:35:23;10.08;71.98
69084;SHT31;56185;48.526;9.044;2023-01-13T06:37:51;10.00;72.35
69084;SHT31;56185;48.526;9.044;2023-01-13T06:40:17;9.95;72.60
69084;SHT31;56185;48.526;9.044;2023-01-13T06:42:43;9.95;72.84
69084;SHT31;56185;48.526;9.044;2023-01-13T06:45:08;10.01;72.53
69084;SHT31;56185;48.526;9.044;2023-01-13T06:47:34;10.05;72.55
69084;SHT31;56185;48.526;9.044;2023-01-13T06:49:59;9.98;72.63
69084;SHT31;56185;48.526;9.044;2023-01-13T06:52:25;10.04;72.54
69084;SHT31;56185;48.526;9.044;2023-01-13T06:54:50;9.94;72.98
69084;SHT31;56185;48.526;9.044;2023-01-13T06:57:15;9.94;72.72
69084;SHT31;56185;48.526;9.044;2023-01-13T06:59:40;9.93;72.84
69084;SHT31;56185;48.526;9.044;2023-01-13T07:02:05;9.91;72.96
69084;SHT31;56185;48.526;9.044;2023-01-13T07:04:31;9.90;72.80
69084;SHT31;56185;48.526;9.044;2023-01-13T07:06:56;9.89;73.20
69084;SHT31;56185;48.526;9.044;2023-01-13T07:09:21;9.91;72.96
69084;SHT31;56185;48.526;9.044;2023-01-13T07:11:46;9.86;73.10
69084;SHT31;56185;48.526;9.044;2023-01-13T07:14:12;9.89;72.98
69084;SHT31;56185;48.526;9.044;2023-01-13T07:16:37;9.84;73.41
69084;SHT31;56185;48.526;9.044;2023-01-13T07:19:02;9.91;73.14
69084;SHT31;56185;48.526;9.044;2023-01-13T07:21:27;9.86;73.08
69084;SHT31;56185;48.526;9.044;2023-01-13T07:23:53;9.87;73.41
69084;SHT31;56185;48.526;9.044;2023-01-13T07:26:18;9.89;73.08
69084;SHT31;56185;48.526;9.044;2023-01-13T07:28:43;9.90;73.07
69084;SHT31;56185;48.526;9.044;2023-01-13T07:31:14;9.93;73.07
69084;SHT31;56185;48.526;9.044;2023-01-13T07:33:40;9.89;73.51
69084;SHT31;56185;48.526;9.044;2023-01-13T07:36:06;9.86;73.18
69084;SHT31;56185;48.526;9.044;2023-01-13T07:38:32;9.81;73.31
69084;SHT31;56185;48.526;9.044;2023-01-13T07:40:58;9.79;73.32
69084;SHT31;56185;48.526;9.044;2023-01-13T07:43:23;9.81;73.37
69084;SHT31;56185;48.526;9.044;2023-01-13T07:45:48;9.80;73.58
69084;SHT31;56185;48.526;9.044;2023-01-13T07:48:14;9.69;73.84
69084;SHT31;56185;48.526;9.044;2023-01-13T07:50:39;9.70;73.79
69084;SHT31;56185;48.526;9.044;2023-01-13T07:53:04;9.69;73.82
69084;SHT31;56185;48.526;9.044;2023-01-13T07:55:29;9.74;73.73
69084;SHT31;56185;48.526;9.044;2023-01-13T07:57:55;9.77;73.77
69084;SHT31;56185;48.526;9.044;2023-01-13T08:00:20;9.77;73.60
69084;SHT31;56185;48.526;9.044;2023-01-13T08:02:46;9.80;73.64
69084;SHT31;56185;48.526;9.044;2023-01-13T08:05:11;9.80;73.93
69084;SHT31;56185;48.526;9.044;2023-01-13T08:07:36;9.74;73.94
69084;SHT31;56185;48.526;9.044;2023-01-13T08:10:02;9.76;73.94
69084;SHT31;56185;48.526;9.044;2023-01-13T08:12:28;9.77;74.20
69084;SHT31;56185;48.526;9.044;2023-01-13T08:14:53;9.83;74.13
69084;SHT31;56185;48.526;9.044;2023-01-13T08:17:18;9.90;73.62
69084;SHT31;56185;48.526;9.044;2023-01-13T08:19:44;9.89;74.61
69084;SHT31;56185;48.526;9.044;2023-01-13T08:22:09;9.86;77.08
69084;SHT31;56185;48.526;9.044;2023-01-13T08:24:34;9.76;78.52
69084;SHT31;56185;48.526;9.044;2023-01-13T08:26:59;9.72;79.98
69084;SHT31;56185;48.526;9.044;2023-01-13T08:29:25;9.64;80.46
69084;SHT31;56185;48.526;9.044;2023-01-13T08:31:50;9.54;82.64
69084;SHT31;56185;48.526;9.044;2023-01-13T08:34:15;9.50;82.38
69084;SHT31;56185;48.526;9.044;2023-01-13T08:36:40;9.40;82.31
69084;SHT31;56185;48.526;9.044;2023-01-13T08:39:05;9.49;82.42
69084;SHT31;56185;48.526;9.044;2023-01-13T08:41:31;9.50;83.36
69084;SHT31;56185;48.526;9.044;2023-01-13T08:43:56;9.40;83.78
69084;SHT31;56185;48.526;9.044;2023-01-13T08:46:21;9.46;82.77
69084;SHT31;56185;48.526;9.044;2023-01-13T08:48:46;9.39;83.41
69084;SHT31;56185;48.526;9.044;2023-01-13T08:51:12;9.44;83.30
69084;SHT31;56185;48.526;9.044;2023-01-13T08:53:37;9.46;83.04
69084;SHT31;56185;48.526;9.044;2023-01-13T08:56:07;9.46;82.87
69084;SHT31;56185;48.526;9.044;2023-01-13T08:58:32;9.43;83.22
69084;SHT31;56185;48.526;9.044;2023-01-13T09:01:03;9.46;83.20
69084;SHT31;56185;48.526;9.044;2023-01-13T09:03:28;9.42;83.39
69084;SHT31;56185;48.526;9.044;2023-01-13T09:05:53;9.31;83.33
69084;SHT31;56185;48.526;9.044;2023-01-13T09:08:19;9.26;83.61
69084;SHT31;56185;48.526;9.044;2023-01-13T09:10:44;9.36;84.32
69084;SHT31;56185;48.526;9.044;2023-01-13T09:13:11;9.40;84.43
69084;SHT31;56185;48.526;9.044;2023-01-13T09:15:38;9.40;83.90
69084;SHT31;56185;48.526;9.044;2023-01-13T09:18:03;9.42;83.94
69084;SHT31;56185;48.526;9.044;2023-01-13T09:20:29;9.33;83.88
69084;SHT31;56185;48.526;9.044;2023-01-13T09:22:54;9.43;83.63
69084;SHT31;56185;48.526;9.044;2023-01-13T09:25:19;9.35;83.93
69084;SHT31;56185;48.526;9.044;2023-01-13T09:27:44;9.39;83.85
69084;SHT31;56185;48.526;9.044;2023-01-13T09:30:10;9.42;84.28
69084;SHT31;56185;48.526;9.044;2023-01-13T09:32:35;9.40;83.77
69084;SHT31;56185;48.526;9.044;2023-01-13T09:35:01;9.42;84.13
69084;SHT31;56185;48.526;9.044;2023-01-13T09:37:31;9.42;83.78
69084;SHT31;56185;48.526;9.044;2023-01-13T09:39:56;9.43;84.09
69084;SHT31;56185;48.526;9.044;2023-01-13T09:42:53;9.38;84.19
69084;SHT31;56185;48.526;9.044;2023-01-13T09:53:32;8.98;85.54
69084;SHT31;56185;48.526;9.044;2023-01-13T09:55:58;8.87;85.09
69084;SHT31;56185;48.526;9.044;2023-01-13T09:58:23;8.61;85.26
69084;SHT31;56185;48.526;9.044;2023-01-13T10:03:20;8.46;85.29
69084;SHT31;56185;48.526;9.044;2023-01-13T10:05:47;8.49;85.18
69084;SHT31;56185;48.526;9.044;2023-01-13T10:08:21;8.47;83.96
69084;SHT31;56185;48.526;9.044;2023-01-13T10:10:52;8.68;84.91
69084;SHT31;56185;48.526;9.044;2023-01-13T10:13:21;8.71;84.03
69084;SHT31;56185;48.526;9.044;2023-01-13T10:15:54;8.81;84.68
69084;SHT31;56185;48.526;9.044;2023-01-13T10:18:27;8.59;84.83
69084;SHT31;56185;48.526;9.044;2023-01-13T10:28:36;8.68;84.89
69084;SHT31;56185;48.526;9.044;2023-01-13T10:31:03;8.82;84.77
69084;SHT31;56185;48.526;9.044;2023-01-13T10:33:29;8.82;85.06
69084;SHT31;56185;48.526;9.044;2023-01-13T10:35:58;8.97;84.61
69084;SHT31;56185;48.526;9.044;2023-01-13T10:41:05;9.90;83.81
69084;SHT31;56185;48.526;9.044;2023-01-13T10:43:31;9.95;82.68
69084;SHT31;56185;48.526;9.044;2023-01-13T10:48:42;9.90;82.49
69084;SHT31;56185;48.526;9.044;2023-01-13T10:56:17;9.80;82.02
69084;SHT31;56185;48.526;9.044;2023-01-13T10:58:42;9.73;81.81
69084;SHT31;56185;48.526;9.044;2023-01-13T11:01:17;9.79;82.21
69084;SHT31;56185;48.526;9.044;2023-01-13T11:03:43;9.52;82.63
69084;SHT31;56185;48.526;9.044;2023-01-13T11:06:19;9.23;84.07
69084;SHT31;56185;48.526;9.044;2023-01-13T11:08:47;9.15;82.74
69084;SHT31;56185;48.526;9.044;2023-01-13T11:11:42;8.19;82.08
69084;SHT31;56185;48.526;9.044;2023-01-13T11:16:56;7.34;84.78
69084;SHT31;56185;48.526;9.044;2023-01-13T11:19:23;7.07;85.27
69084;SHT31;56185;48.526;9.044;2023-01-13T11:21:57;7.09;86.63
69084;SHT31;56185;48.526;9.044;2023-01-13T11:24:35;6.93;86.54
69084;SHT31;56185;48.526;9.044;2023-01-13T11:27:12;6.69;87.47
69084;SHT31;56185;48.526;9.044;2023-01-13T11:29:55;6.56;87.73
69084;SHT31;56185;48.526;9.044;2023-01-13T11:32:23;6.76;88.09
69084;SHT31;56185;48.526;9.044;2023-01-13T11:34:59;6.74;87.68
69084;SHT31;56185;48.526;9.044;2023-01-13T11:37:30;6.79;87.60
69084;SHT31;56185;48.526;9.044;2023-01-13T11:40:01;6.69;85.78
69084;SHT31;56185;48.526;9.044;2023-01-13T11:42:48;6.79;86.93
69084;SHT31;56185;48.526;9.044;2023-01-13T11:45:55;6.82;87.48
69084;SHT31;56185;48.526;9.044;2023-01-13T11:48:28;6.89;86.78
69084;SHT31;56185;48.526;9.044;2023-01-13T11:51:07;6.89;86.09
69084;SHT31;56185;48.526;9.044;2023-01-13T11:53:54;6.86;87.02
69084;SHT31;56185;48.526;9.044;2023-01-13T11:56:35;6.92;86.49
69084;SHT31;56185;48.526;9.044;2023-01-13T12:07:20;7.22;85.09
69084;SHT31;56185;48.526;9.044;2023-01-13T12:09:59;7.16;83.99
69084;SHT31;56185;48.526;9.044;2023-01-13T12:12:44;7.46;84.88
69084;SHT31;56185;48.526;9.044;2023-01-13T12:20:33;7.60;84.24
69084;SHT31;56185;48.526;9.044;2023-01-13T12:23:08;7.78;83.21
69084;SHT31;56185;48.526;9.044;2023-01-13T12:25:40;8.02;81.68
69084;SHT31;56185;48.526;9.044;2023-01-13T12:28:17;8.01;83.16
69084;SHT31;56185;48.526;9.044;2023-01-13T12:30:59;8.01;81.52
69084;SHT31;56185;48.526;9.044;2023-01-13T12:45:28;7.81;82.08
69084;SHT31;56185;48.526;9.044;2023-01-13T12:47:55;7.84;80.38
69084;SHT31;56185;48.526;9.044;2023-01-13T12:52:53;7.93;83.77
69084;SHT31;56185;48.526;9.044;2023-01-13T13:06:06;7.98;79.41
69084;SHT31;56185;48.526;9.044;2023-01-13T13:13:47;8.23;79.12
69084;SHT31;56185;48.526;9.044;2023-01-13T13:18:50;8.37;78.15
69084;SHT31;56185;48.526;9.044;2023-01-13T13:21:16;8.23;77.31
69084;SHT31;56185;48.526;9.044;2023-01-13T13:28:51;8.54;76.91
69084;SHT31;56185;48.526;9.044;2023-01-13T13:34:08;8.61;76.90
69084;SHT31;56185;48.526;9.044;2023-01-13T13:36:47;8.68;77.09
69084;SHT31;56185;48.526;9.044;2023-01-13T13:39:21;8.67;76.06
69084;SHT31;56185;48.526;9.044;2023-01-13T13:41:50;8.73;76.44
69084;SHT31;56185;48.526;9.044;2023-01-13T13:44:33;8.78;74.61
69084;SHT31;56185;48.526;9.044;2023-01-13T13:47:01;8.87;75.69
69084;SHT31;56185;48.526;9.044;2023-01-13T13:49:45;8.91;77.14
69084;SHT31;56185;48.526;9.044;2023-01-13T13:52:43;8.98;76.89
69084;SHT31;56185;48.526;9.044;2023-01-13T13:55:23;9.10;77.20
69084;SHT31;56185;48.526;9.044;2023-01-13T13:57:51;8.98;77.92
69084;SHT31;56185;48.526;9.044;2023-01-13T14:00:36;8.98;77.51
69084;SHT31;56185;48.526;9.044;2023-01-13T14:03:07;8.81;75.89
69084;SHT31;56185;48.526;9.044;2023-01-13T14:05:54;8.73;78.40
69084;SHT31;56185;48.526;9.044;2023-01-13T14:08:20;8.74;75.87
69084;SHT31;56185;48.526;9.044;2023-01-13T14:10:46;8.63;77.15
69084;SHT31;56185;48.526;9.044;2023-01-13T14:13:26;8.44;76.09
69084;SHT31;56185;48.526;9.044;2023-01-13T14:16:01;8.39;76.42
69084;SHT31;56185;48.526;9.044;2023-01-13T14:18:28;8.39;76.77
69084;SHT31;56185;48.526;9.044;2023-01-13T14:21:03;8.30;75.90
69084;SHT31;56185;48.526;9.044;2023-01-13T14:23:30;8.33;76.74
69084;SHT31;56185;48.526;9.044;2023-01-13T14:26:08;8.46;77.84
69084;SHT31;56185;48.526;9.044;2023-01-13T14:28:38;8.53;76.89
69084;SHT31;56185;48.526;9.044;2023-01-13T14:31:04;8.70;77.04
69084;SHT31;56185;48.526;9.044;2023-01-13T14:38:35;8.80;74.25
69084;SHT31;56185;48.526;9.044;2023-01-13T14:41:23;8.78;75.10
69084;SHT31;56185;48.526;9.044;2023-01-13T14:43:50;8.77;74.86
69084;SHT31;56185;48.526;9.044;2023-01-13T14:46:16;8.78;75.15
69084;SHT31;56185;48.526;9.044;2023-01-13T14:48:43;8.74;74.94
69084;SHT31;56185;48.526;9.044;2023-01-13T14:51:11;8.81;75.40
69084;SHT31;56185;48.526;9.044;2023-01-13T15:04:52;8.57;72.61
69084;SHT31;56185;48.526;9.044;2023-01-13T15:07:24;8.59;72.51
69084;SHT31;56185;48.526;9.044;2023-01-13T15:09:55;8.68;73.94
69084;SHT31;56185;48.526;9.044;2023-01-13T15:12:36;8.53;74.08
69084;SHT31;56185;48.526;9.044;2023-01-13T15:15:49;8.53;74.07
69084;SHT31;56185;48.526;9.044;2023-01-13T15:17:49;8.56;76.02
69084;SHT31;56185;48.526;9.044;2023-01-13T15:20:16;8.49;74.39
69084;SHT31;56185;48.526;9.044;2023-01-13T15:22:41;8.50;74.59
69084;SHT31;56185;48.526;9.044;2023-01-13T15:25:07;8.33;74.08
69084;SHT31;56185;48.526;9.044;2023-01-13T15:27:32;8.50;75.29
69084;SHT31;56185;48.526;9.044;2023-01-13T15:29:58;8.34;74.03
69084;SHT31;56185;48.526;9.044;2023-01-13T15:32:23;8.34;74.76
69084;SHT31;56185;48.526;9.044;2023-01-13T15:34:48;8.33;75.17
69084;SHT31;56185;48.526;9.044;2023-01-13T15:37:14;8.28;75.18
69084;SHT31;56185;48.526;9.044;2023-01-13T15:39:39;8.01;74.65
69084;SHT31;56185;48.526;9.044;2023-01-13T15:42:05;8.13;75.64
69084;SHT31;56185;48.526;9.044;2023-01-13T15:44:30;8.23;75.73
69084;SHT31;56185;48.526;9.044;2023-01-13T15:47:05;8.28;75.04
69084;SHT31;56185;48.526;9.044;2023-01-13T15:49:49;8.10;76.47
69084;SHT31;56185;48.526;9.044;2023-01-13T15:52:23;8.03;75.30
69084;SHT31;56185;48.526;9.044;2023-01-13T15:54:50;8.02;75.16
69084;SHT31;56185;48.526;9.044;2023-01-13T15:59:51;7.82;77.23
69084;SHT31;56185;48.526;9.044;2023-01-13T16:02:17;7.70;78.15
69084;SHT31;56185;48.526;9.044;2023-01-13T16:04:43;7.67;76.78
69084;SHT31;56185;48.526;9.044;2023-01-13T16:07:15;7.53;77.01
69084;SHT31;56185;48.526;9.044;2023-01-13T16:09:41;7.51;77.45
69084;SHT31;56185;48.526;9.044;2023-01-13T16:12:07;7.47;77.69
69084;SHT31;56185;48.526;9.044;2023-01-13T16:14:32;7.28;77.68
69084;SHT31;56185;48.526;9.044;2023-01-13T16:16:58;7.31;78.12
69084;SHT31;56185;48.526;9.044;2023-01-13T16:19:23;7.35;78.48
69084;SHT31;56185;48.526;9.044;2023-01-13T16:21:48;7.33;77.97
69084;SHT31;56185;48.526;9.044;2023-01-13T16:24:13;7.26;77.27
69084;SHT31;56185;48.526;9.044;2023-01-13T16:26:45;7.28;77.81
69084;SHT31;56185;48.526;9.044;2023-01-13T16:29:10;7.34;77.53
69084;SHT31;56185;48.526;9.044;2023-01-13T16:31:35;7.27;78.26
69084;SHT31;56185;48.526;9.044;2023-01-13T16:34:01;7.16;77.36
69084;SHT31;56185;48.526;9.044;2023-01-13T16:36:28;7.16;77.77
69084;SHT31;56185;48.526;9.044;2023-01-13T16:38:54;7.07;78.54
69084;SHT31;56185;48.526;9.044;2023-01-13T16:41:20;7.04;79.20
69084;SHT31;56185;48.526;9.044;2023-01-13T16:43:47;6.99;79.28
69084;SHT31;56185;48.526;9.044;2023-01-13T16:48:41;6.88;78.82
69084;SHT31;56185;48.526;9.044;2023-01-13T16:51:06;6.75;78.65
69084;SHT31;56185;48.526;9.044;2023-01-13T16:53:31;6.74;77.95
69084;SHT31;56185;48.526;9.044;2023-01-13T16:55:56;6.85;77.80
69084;SHT31;56185;48.526;9.044;2023-01-13T16:58:21;6.97;77.80
69084;SHT31;56185;48.526;9.044;2023-01-13T17:00:47;7.06;77.90
69084;SHT31;56185;48.526;9.044;2023-01-13T17:03:14;7.22;78.54
69084;SHT31;56185;48.526;9.044;2023-01-13T17:05:40;7.20;78.07
69084;SHT31;56185;48.526;9.044;2023-01-13T17:08:10;7.22;76.93
69084;SHT31;56185;48.526;9.044;2023-01-13T17:10:35;7.35;77.72
69084;SHT31;56185;48.526;9.044;2023-01-13T17:13:01;7.30;76.85
69084;SHT31;56185;48.526;9.044;2023-01-13T17:15:26;7.22;77.15
69084;SHT31;56185;48.526;9.044;2023-01-13T17:17:51;7.33;77.90
69084;SHT31;56185;48.526;9.044;2023-01-13T17:20:17;7.33;78.29
69084;SHT31;56185;48.526;9.044;2023-01-13T17:22:43;7.22;79.47
69084;SHT31;56185;48.526;9.044;2023-01-13T17:25:10;6.96;82.26
69084;SHT31;56185;48.526;9.044;2023-01-13T17:27:36;6.92;82.92
69084;SHT31;56185;48.526;9.044;2023-01-13T17:30:02;6.97;83.15
69084;SHT31;56185;48.526;9.044;2023-01-13T17:32:27;6.95;84.37
69084;SHT31;56185;48.526;9.044;2023-01-13T17:34:52;7.02;85.41
69084;SHT31;56185;48.526;9.044;2023-01-13T17:37:18;6.96;85.40
69084;SHT31;56185;48.526;9.044;2023-01-13T17:39:43;6.95;85.51
69084;SHT31;56185;48.526;9.044;2023-01-13T17:42:09;6.95;85.59
69084;SHT31;56185;48.526;9.044;2023-01-13T17:44:35;7.00;85.68
69084;SHT31;56185;48.526;9.044;2023-01-13T17:47:00;6.86;85.92
69084;SHT31;56185;48.526;9.044;2023-01-13T17:49:25;6.88;84.89
69084;SHT31;56185;48.526;9.044;2023-01-13T17:51:51;6.71;83.21
69084;SHT31;56185;48.526;9.044;2023-01-13T17:54:16;6.55;81.87
69084;SHT31;56185;48.526;9.044;2023-01-13T17:56:42;6.44;82.83
69084;SHT31;56185;48.526;9.044;2023-01-13T17:59:08;6.49;83.28
69084;SHT31;56185;48.526;9.044;2023-01-13T18:01:35;6.37;82.82
69084;SHT31;56185;48.526;9.044;2023-01-13T18:04:01;6.28;83.48
69084;SHT31;56185;48.526;9.044;2023-01-13T18:06:26;6.25;83.12